createdAt,value
2023-03-30T00:01:17.263Z,5.38
2023-03-30T00:06:22.824Z,8.63
2023-03-30T00:11:28.580Z,6.70
2023-03-30T00:16:31.761Z,5.13
2023-03-30T00:21:35.098Z,4.30
2023-03-30T00:26:39.329Z,5.00
2023-03-30T00:31:42.371Z,5.45
2023-03-30T00:36:46.557Z,5.95
2023-03-30T00:41:51.282Z,6.53
2023-03-30T00:46:54.638Z,6.22
2023-03-30T00:51:57.564Z,6.60
2023-03-30T00:57:02.008Z,5.47
2023-03-30T01:02:06.283Z,5.53
2023-03-30T01:07:12.414Z,5.45
2023-03-30T01:12:16.705Z,4.70
2023-03-30T01:17:26.362Z,6.20
2023-03-30T01:23:03.714Z,4.90
2023-03-30T01:28:27.891Z,5.87
2023-03-30T01:34:18.609Z,5.47
2023-03-30T01:39:29.528Z,5.40
2023-03-30T01:44:37.464Z,5.70
2023-03-30T01:49:43.521Z,5.75
2023-03-30T01:54:51.001Z,6.00
2023-03-30T01:59:57.276Z,5.03
2023-03-30T02:05:01.830Z,5.07
2023-03-30T02:10:09.535Z,5.38
2023-03-30T02:15:13.121Z,4.63
2023-03-30T02:20:17.642Z,5.10
2023-03-30T02:25:23.325Z,5.47
2023-03-30T02:30:26.428Z,6.23
2023-03-30T02:35:51.466Z,5.80
2023-03-30T02:41:01.915Z,6.78
2023-03-30T02:46:17.314Z,6.23
2023-03-30T02:51:34.797Z,6.88
2023-03-30T02:57:07.241Z,6.43
2023-03-30T03:02:13.538Z,6.85
2023-03-30T03:07:17.097Z,6.27
2023-03-30T03:12:21.466Z,6.30
2023-03-30T03:17:24.705Z,6.60
2023-03-30T03:22:27.686Z,6.43
2023-03-30T03:27:32.586Z,6.80
2023-03-30T03:32:43.448Z,7.47
2023-03-30T03:37:46.575Z,5.80
2023-03-30T03:42:51.228Z,5.30
2023-03-30T03:47:54.780Z,5.53
2023-03-30T03:53:08.470Z,5.32
2023-03-30T03:58:14.382Z,5.57
2023-03-30T04:03:17.565Z,6.07
2023-03-30T04:08:20.492Z,5.57
2023-03-30T04:13:25.187Z,5.83
2023-03-30T04:18:49.570Z,6.65
2023-03-30T04:24:12.252Z,5.90
2023-03-30T04:29:29.748Z,6.03
2023-03-30T04:34:54.771Z,5.97
2023-03-30T04:40:10.011Z,6.23
2023-03-30T04:45:33.873Z,6.90
2023-03-30T04:51:06.214Z,7.00
2023-03-30T04:56:27.791Z,7.23
2023-03-30T05:01:39.361Z,7.18
2023-03-30T05:06:55.542Z,8.13
2023-03-30T05:12:12.521Z,7.40
2023-03-30T05:17:46.066Z,8.80
2023-03-30T05:23:05.628Z,8.75
2023-03-30T05:28:26.939Z,9.25
2023-03-30T05:33:49.533Z,8.80
2023-03-30T05:39:07.631Z,9.50
2023-03-30T05:44:28.742Z,9.75
2023-03-30T05:49:58.657Z,9.20
2023-03-30T05:55:08.548Z,9.37
2023-03-30T06:00:16.081Z,9.52
2023-03-30T06:05:43.700Z,10.27
2023-03-30T06:10:53.488Z,9.57
2023-03-30T06:15:57.102Z,10.13
2023-03-30T06:21:07.191Z,11.10
2023-03-30T06:26:23.285Z,10.85
2023-03-30T06:31:26.535Z,11.32
2023-03-30T06:36:53.852Z,10.27
2023-03-30T06:41:59.719Z,10.65
2023-03-30T06:47:30.500Z,11.45
2023-03-30T06:52:37.325Z,11.70
2023-03-30T06:57:40.911Z,11.43
2023-03-30T07:02:45.490Z,10.82
2023-03-30T07:08:14.434Z,11.23
2023-03-30T07:13:23.923Z,10.65
2023-03-30T07:18:28.597Z,10.73
2023-03-30T07:23:34.044Z,11.57
2023-03-30T07:28:38.210Z,12.10
2023-03-30T07:33:41.880Z,11.23
2023-03-30T07:38:50.153Z,12.52
2023-03-30T07:43:53.296Z,13.23
2023-03-30T07:48:56.665Z,9.77
2023-03-30T07:54:01.444Z,9.45
2023-03-30T07:59:14.643Z,8.93
2023-03-30T08:04:20.853Z,10.20
2023-03-30T08:09:27.565Z,8.93
2023-03-30T08:14:30.662Z,11.27
2023-03-30T08:19:33.583Z,10.25
2023-03-30T08:24:38.080Z,9.82
2023-03-30T08:29:41.241Z,9.23
2023-03-30T08:34:44.790Z,10.77
2023-03-30T08:39:49.188Z,9.77
2023-03-30T08:44:53.989Z,9.93
2023-03-30T08:50:00.781Z,10.40
2023-03-30T08:55:05.603Z,9.67
2023-03-30T09:00:20.003Z,11.25
2023-03-30T09:05:25.761Z,9.57
2023-03-30T09:10:32.882Z,9.93
2023-03-30T09:15:37.869Z,8.93
2023-03-30T09:20:44.240Z,9.57
2023-03-30T09:25:53.520Z,10.15
2023-03-30T09:31:02.746Z,10.30
2023-03-30T09:36:13.152Z,10.73
2023-03-30T09:41:32.565Z,9.40
2023-03-30T09:46:35.685Z,7.88
2023-03-30T09:51:53.911Z,9.75
2023-03-30T09:56:58.146Z,9.20
2023-03-30T10:02:16.800Z,10.07
2023-03-30T10:07:23.674Z,10.63
2023-03-30T10:12:28.748Z,9.45
2023-03-30T10:17:32.299Z,10.50
2023-03-30T10:22:38.665Z,11.55
2023-03-30T10:27:45.628Z,10.02
2023-03-30T10:32:48.632Z,11.25
2023-03-30T10:37:53.432Z,11.43
2023-03-30T10:42:59.251Z,9.80
2023-03-30T10:48:13.685Z,10.45
2023-03-30T10:53:27.419Z,10.60
2023-03-30T10:58:42.588Z,10.75
2023-03-30T11:03:48.497Z,10.23
2023-03-30T11:08:53.158Z,9.57
2023-03-30T11:14:01.958Z,9.87
2023-03-30T11:19:08.269Z,10.95
2023-03-30T11:24:14.738Z,10.00
2023-03-30T11:29:25.689Z,11.60
2023-03-30T11:34:32.556Z,10.70
2023-03-30T11:39:38.334Z,11.13
2023-03-30T11:44:42.712Z,9.57
2023-03-30T11:49:55.075Z,9.85
2023-03-30T11:55:28.193Z,10.80
2023-03-30T12:00:42.250Z,10.80
2023-03-30T12:05:48.726Z,11.50
2023-03-30T12:10:56.779Z,11.40
2023-03-30T12:16:03.158Z,10.70
2023-03-30T12:21:24.000Z,10.32
2023-03-30T12:26:28.399Z,9.65
2023-03-30T12:32:05.006Z,9.75
2023-03-30T12:37:10.274Z,10.43
2023-03-30T12:42:26.358Z,10.18
2023-03-30T12:47:43.534Z,11.57
2023-03-30T12:52:55.715Z,11.00
2023-03-30T12:58:08.814Z,11.93
2023-03-30T13:03:40.311Z,10.75
2023-03-30T13:08:43.568Z,9.97
2023-03-30T13:13:55.877Z,10.93
2023-03-30T13:19:11.667Z,10.70
2023-03-30T13:24:28.498Z,11.10
2023-03-30T13:29:31.684Z,10.20
2023-03-30T13:35:06.237Z,11.98
2023-03-30T13:40:15.137Z,11.95
2023-03-30T13:45:40.320Z,11.85
2023-03-30T13:50:47.827Z,11.85
2023-03-30T13:55:51.105Z,11.63
2023-03-30T14:00:56.434Z,12.23
2023-03-30T14:06:06.049Z,13.30
2023-03-30T14:11:15.331Z,12.10
2023-03-30T14:16:21.298Z,12.32
2023-03-30T14:21:25.747Z,10.40
2023-03-30T14:26:30.448Z,10.73
2023-03-30T14:31:39.561Z,11.45
2023-03-30T14:36:45.362Z,10.73
2023-03-30T14:41:48.261Z,10.30
2023-03-30T14:46:52.816Z,11.43
2023-03-30T14:52:01.900Z,9.73
2023-03-30T14:57:07.770Z,10.50
2023-03-30T15:02:19.950Z,11.93
2023-03-30T15:07:24.785Z,12.25
2023-03-30T15:12:29.890Z,11.75
2023-03-30T15:17:56.668Z,11.90
2023-03-30T15:23:01.596Z,11.30
2023-03-30T15:28:06.613Z,10.50
2023-03-30T15:33:21.635Z,12.27
2023-03-30T15:38:36.419Z,11.25
2023-03-30T15:43:56.236Z,11.47
2023-03-30T15:48:59.411Z,12.02
2023-03-30T15:54:05.901Z,10.47
2023-03-30T15:59:13.731Z,11.93
2023-03-30T16:04:18.456Z,11.07
2023-03-30T16:09:23.064Z,10.83
2023-03-30T16:14:26.522Z,11.23
2023-03-30T16:19:29.380Z,10.87
2023-03-30T16:24:33.615Z,13.00
2023-03-30T16:29:36.593Z,10.35
2023-03-30T16:34:41.657Z,11.90
2023-03-30T16:39:48.439Z,10.93
2023-03-30T16:44:51.674Z,11.40
2023-03-30T16:49:54.585Z,12.25
2023-03-30T16:54:58.871Z,9.73
2023-03-30T17:00:01.802Z,12.25
2023-03-30T17:05:05.039Z,10.38
2023-03-30T17:10:16.878Z,10.57
2023-03-30T17:15:20.349Z,10.43
2023-03-30T17:20:29.697Z,11.77
2023-03-30T17:25:36.070Z,12.27
2023-03-30T17:30:40.617Z,11.38
2023-03-30T17:35:46.074Z,13.13
2023-03-30T17:40:50.812Z,11.93
2023-03-30T17:45:53.660Z,12.35
2023-03-30T17:50:56.516Z,10.18
2023-03-30T17:56:00.768Z,11.93
2023-03-30T18:01:05.856Z,13.35
2023-03-30T18:06:09.218Z,11.33
2023-03-30T18:11:13.601Z,14.27
2023-03-30T18:16:17.921Z,11.25
2023-03-30T18:21:20.848Z,11.10
2023-03-30T18:26:25.056Z,11.77
2023-03-30T18:31:27.925Z,11.07
2023-03-30T18:36:30.771Z,12.18
2023-03-30T18:41:35.055Z,12.60
2023-03-30T18:46:38.059Z,12.60
2023-03-30T18:51:41.093Z,12.50
2023-03-30T18:56:45.713Z,11.35
2023-03-30T19:01:49.658Z,12.43
2023-03-30T19:06:54.146Z,11.23
2023-03-30T19:11:58.403Z,12.80
2023-03-30T19:17:01.256Z,12.25
2023-03-30T19:22:04.121Z,11.93
2023-03-30T19:27:08.259Z,12.30
2023-03-30T19:32:11.774Z,13.18
2023-03-30T19:37:15.998Z,13.38
2023-03-30T19:42:20.293Z,13.02
2023-03-30T19:47:24.691Z,12.73
2023-03-30T19:52:27.586Z,13.30
2023-03-30T19:57:31.834Z,12.30
2023-03-30T20:02:34.744Z,13.25
2023-03-30T20:07:38.310Z,12.05
2023-03-30T20:12:42.599Z,12.55
2023-03-30T20:17:45.600Z,12.60
2023-03-30T20:22:53.264Z,12.70
2023-03-30T20:27:57.421Z,12.13
2023-03-30T20:33:07.296Z,12.57
2023-03-30T20:38:10.793Z,12.52
2023-03-30T20:43:14.998Z,12.50
2023-03-30T20:48:27.153Z,13.47
2023-03-30T20:53:30.675Z,12.50
2023-03-30T20:58:34.836Z,13.65
2023-03-30T21:03:41.180Z,12.30
2023-03-30T21:08:44.038Z,14.07
2023-03-30T21:13:48.304Z,11.90
2023-03-30T21:18:51.828Z,11.60
2023-03-30T21:23:54.720Z,14.45
2023-03-30T21:28:58.944Z,13.25
2023-03-30T21:34:01.957Z,13.25
2023-03-30T21:39:04.716Z,12.77
2023-03-30T21:44:08.979Z,13.80
2023-03-30T21:49:12.017Z,11.95
2023-03-30T21:54:15.989Z,12.00
2023-03-30T21:59:20.295Z,12.32
2023-03-30T22:04:23.096Z,14.00
2023-03-30T22:09:26.001Z,12.10
2023-03-30T22:14:30.376Z,12.17
2023-03-30T22:19:34.466Z,11.35
2023-03-30T22:24:37.408Z,12.18
2023-03-30T22:29:41.644Z,13.00
2023-03-30T22:34:44.463Z,11.60
2023-03-30T22:39:47.347Z,10.63
2023-03-30T22:44:51.635Z,11.70
2023-03-30T22:49:54.489Z,10.93
2023-03-30T22:54:57.380Z,11.68
2023-03-30T23:00:07.048Z,10.85
2023-03-30T23:05:13.213Z,12.18
2023-03-30T23:10:17.925Z,9.98
2023-03-30T23:15:22.676Z,11.40
2023-03-30T23:20:25.477Z,9.30
2023-03-30T23:25:28.409Z,9.93
2023-03-30T23:30:32.746Z,11.60
2023-03-30T23:35:35.606Z,9.50
2023-03-30T23:40:38.460Z,11.43
2023-03-30T23:45:44.393Z,9.23
2023-03-30T23:50:47.181Z,9.50
2023-03-30T23:55:51.259Z,10.23
